Time;durP1;ratioP1;P1;durP2;ratioP2;P2;SDS_P1;SDS_P2;PMS_P1;PMS_P2;Temp;Humidity;BMP_temperature;BMP_pressure;BME280_temperature;BME280_humidity;BME280_pressure;Samples;Min_cycle;Max_cycle;Signal;HPM_P1;HPM_P2
2022/08/24 00:01:14;;;;;;;1.58;0.98;;;21.70;99.90;;;;;;5052395;28;20263;-74
2022/08/24 00:03:41;;;;;;;1.73;0.95;;;21.70;99.90;;;;;;5052717;28;20103;-76
2022/08/24 00:06:10;;;;;;;2.17;1.10;;;21.70;99.90;;;;;;5051993;28;20022;-74
2022/08/24 00:08:37;;;;;;;3.63;1.25;;;21.60;99.90;;;;;;5052473;28;20022;-77
2022/08/24 00:11:04;;;;;;;3.20;1.17;;;21.60;99.90;;;;;;5050260;28;20025;-77
2022/08/24 00:13:29;;;;;;;2.25;1.02;;;21.50;99.90;;;;;;5052161;28;20049;-76
2022/08/24 00:15:56;;;;;;;2.95;1.52;;;21.50;99.90;;;;;;5052207;28;20040;-74
2022/08/24 00:18:22;;;;;;;2.08;1.23;;;21.40;99.90;;;;;;5051433;28;20406;-74
2022/08/24 00:20:48;;;;;;;4.68;1.10;;;21.40;99.90;;;;;;5051745;28;20055;-74
2022/08/24 00:23:14;;;;;;;1.85;1.10;;;21.40;99.90;;;;;;5034352;28;20025;-76
2022/08/24 00:25:40;;;;;;;2.83;1.17;;;21.30;99.90;;;;;;5051574;28;20066;-74
2022/08/24 00:28:06;;;;;;;2.05;0.80;;;21.20;99.90;;;;;;5052162;28;20071;-75
2022/08/24 00:30:33;;;;;;;2.08;1.00;;;21.20;99.90;;;;;;5052707;28;20028;-76
2022/08/24 00:32:59;;;;;;;2.13;0.80;;;21.10;99.90;;;;;;5052204;28;20018;-75
2022/08/24 00:35:25;;;;;;;1.38;0.90;;;21.10;99.90;;;;;;5051398;28;20105;-74
2022/08/24 00:37:51;;;;;;;2.55;0.75;;;21.10;99.90;;;;;;5052164;28;20103;-77
2022/08/24 00:40:28;;;;;;;1.20;0.80;;;21.10;99.90;;;;;;5033545;28;20087;-74
2022/08/24 00:42:55;;;;;;;1.60;0.95;;;21.10;99.90;;;;;;5051443;28;20040;-73
2022/08/24 00:45:23;;;;;;;10.57;0.90;;;21.10;99.90;;;;;;5033050;28;20025;-75
2022/08/24 00:47:57;;;;;;;0.95;0.80;;;21.10;99.90;;;;;;5050863;28;20409;-74
2022/08/24 00:50:26;;;;;;;;;;;21.00;99.90;;;;;;5033954;28;20089;-75
2022/08/24 00:53:05;;;;;;;2.83;1.35;;;21.10;99.90;;;;;;5051153;28;19916;-74
2022/08/24 00:55:37;;;;;;;2.55;1.13;;;21.10;99.90;;;;;;5052186;28;20116;-74
2022/08/24 00:58:10;;;;;;;3.10;1.05;;;21.00;99.90;;;;;;5052148;28;20044;-75
2022/08/24 01:00:42;;;;;;;2.40;1.55;;;21.00;99.90;;;;;;5050284;28;20028;-74
2022/08/24 01:03:08;;;;;;;1.95;0.93;;;21.00;99.90;;;;;;5051474;28;20029;-75
2022/08/24 01:05:36;;;;;;;3.15;1.23;;;20.90;99.90;;;;;;5033134;28;20036;-75
2022/08/24 01:08:05;;;;;;;2.35;1.08;;;20.90;99.90;;;;;;5032840;28;20111;-74
2022/08/24 01:10:36;;;;;;;1.60;0.85;;;20.90;99.90;;;;;;5051761;28;20486;-75
2022/08/24 01:13:05;;;;;;;2.03;0.85;;;20.80;99.90;;;;;;5050602;28;20021;-75
2022/08/24 01:15:35;;;;;;;2.15;0.85;;;20.70;99.90;;;;;;5032476;28;20090;-74
2022/08/24 01:20:47;;;;;;;;;;;20.70;99.90;;;;;;5050938;28;20056;-75
2022/08/24 01:23:40;;;;;;;3.08;1.50;;;20.70;99.90;;;;;;5050405;28;19905;-76
2022/08/24 01:26:11;;;;;;;2.20;0.98;;;20.70;99.90;;;;;;5032641;28;20091;-77
2022/08/24 01:28:39;;;;;;;1.73;1.10;;;20.60;99.90;;;;;;5032656;28;20026;-74
2022/08/24 01:31:05;;;;;;;1.05;0.93;;;20.60;99.90;;;;;;5050850;28;20032;-74
2022/08/24 01:33:32;;;;;;;2.78;1.27;;;20.60;99.90;;;;;;5033410;28;20044;-74
2022/08/24 01:36:21;;;;;;;3.30;1.15;;;20.60;99.90;;;;;;5050527;28;20025;-74
2022/08/24 01:38:48;;;;;;;1.80;1.00;;;20.60;99.90;;;;;;5050874;28;20053;-74
2022/08/24 01:41:13;;;;;;;1.67;0.90;;;20.50;99.90;;;;;;5051379;28;20021;-74
2022/08/24 01:43:40;;;;;;;2.28;0.88;;;20.50;99.90;;;;;;5051129;28;20049;-74
2022/08/24 01:46:06;;;;;;;1.25;0.80;;;20.50;99.90;;;;;;5050812;28;20053;-76
2022/08/24 01:48:31;;;;;;;3.10;1.05;;;20.40;99.90;;;;;;5050512;28;20036;-74
2022/08/24 01:50:57;;;;;;;2.05;1.20;;;20.40;99.90;;;;;;5032397;28;20040;-75
2022/08/24 01:53:23;;;;;;;3.03;1.08;;;20.40;99.90;;;;;;5049644;28;20021;-74
2022/08/24 01:55:49;;;;;;;1.52;0.90;;;20.40;99.90;;;;;;5050979;28;20052;-75
2022/08/24 01:58:14;;;;;;;2.70;0.98;;;20.30;99.90;;;;;;5032972;28;20018;-73
2022/08/24 02:00:40;;;;;;;1.13;0.90;;;20.30;99.90;;;;;;5032655;28;20036;-74
2022/08/24 02:03:06;;;;;;;4.80;1.17;;;20.30;99.90;;;;;;5050581;28;20028;-74
2022/08/24 02:05:33;;;;;;;3.53;1.15;;;20.30;99.90;;;;;;5032762;28;20025;-73
2022/08/24 02:07:59;;;;;;;1.88;0.90;;;20.30;99.90;;;;;;5050631;28;20037;-72
2022/08/24 02:10:26;;;;;;;2.15;1.10;;;20.30;99.90;;;;;;5051007;28;20037;-74
2022/08/24 02:12:57;;;;;;;2.17;1.40;;;20.30;99.90;;;;;;5050423;28;20040;-73
2022/08/24 02:15:26;;;;;;;9.52;1.05;;;20.30;99.90;;;;;;5032913;28;20369;-74
2022/08/24 02:17:53;;;;;;;1.83;0.98;;;20.20;99.90;;;;;;5050258;28;20207;-72
2022/08/24 02:20:20;;;;;;;1.65;1.02;;;20.20;99.90;;;;;;5050140;28;20009;-72
2022/08/24 02:22:47;;;;;;;1.10;0.90;;;20.20;99.90;;;;;;5032694;28;20025;-72
2022/08/24 02:25:13;;;;;;;1.38;0.98;;;20.20;99.90;;;;;;5031780;28;20032;-75
2022/08/24 02:27:38;;;;;;;1.50;0.77;;;20.20;99.90;;;;;;5050562;28;20096;-72
2022/08/24 02:30:04;;;;;;;3.17;1.13;;;20.10;99.90;;;;;;5049898;28;20076;-72
2022/08/24 02:32:30;;;;;;;1.25;0.82;;;20.10;99.90;;;;;;5049117;28;20030;-73
2022/08/24 02:34:56;;;;;;;2.78;1.15;;;20.10;99.90;;;;;;5031696;28;20049;-72
2022/08/24 02:37:21;;;;;;;2.38;1.02;;;20.10;99.90;;;;;;5033448;28;20046;-72
2022/08/24 02:39:47;;;;;;;2.70;1.17;;;20.10;99.90;;;;;;5053702;28;20060;-74
2022/08/24 02:42:14;;;;;;;1.48;0.90;;;20.00;99.90;;;;;;5054196;28;20076;-74
2022/08/24 02:44:40;;;;;;;1.25;0.98;;;20.00;99.90;;;;;;5053550;28;20020;-73
2022/08/24 02:47:06;;;;;;;2.15;1.10;;;20.00;99.90;;;;;;5054029;28;20117;-73
2022/08/24 02:49:31;;;;;;;2.20;1.45;;;20.00;99.90;;;;;;5053633;28;20016;-74
2022/08/24 02:51:57;;;;;;;2.67;1.27;;;19.90;99.90;;;;;;5053862;28;20117;-72
2022/08/24 02:54:23;;;;;;;2.40;1.10;;;19.90;99.90;;;;;;5053744;28;20662;-74
2022/08/24 02:56:48;;;;;;;1.92;1.15;;;20.00;99.90;;;;;;5054065;28;20543;-73
2022/08/24 02:59:15;;;;;;;1.80;0.80;;;19.90;99.90;;;;;;5052646;28;20025;-74
2022/08/24 03:01:41;;;;;;;7.88;1.48;;;;;;;;;;5053865;28;20076;-74
2022/08/24 03:04:07;;;;;;;2.75;1.27;;;19.70;99.90;;;;;;5053320;28;20025;-74
2022/08/24 03:06:32;;;;;;;8.75;1.42;;;19.80;99.90;;;;;;5034663;28;20401;-73
2022/08/24 03:08:58;;;;;;;1.90;1.20;;;19.80;99.90;;;;;;5035979;28;20021;-75
2022/08/24 03:11:24;;;;;;;2.33;1.30;;;19.70;99.90;;;;;;5052478;28;20564;-73
2022/08/24 03:13:50;;;;;;;0.93;0.77;;;19.70;99.90;;;;;;5035652;28;20029;-74
2022/08/24 03:16:15;;;;;;;4.50;1.10;;;19.70;99.90;;;;;;5035511;28;20148;-75
2022/08/24 03:18:42;;;;;;;1.50;1.20;;;19.70;99.90;;;;;;5053218;28;20024;-75
2022/08/24 03:21:09;;;;;;;4.13;1.90;;;19.60;99.90;;;;;;5035300;28;20040;-76
2022/08/24 03:23:35;;;;;;;8.82;1.40;;;19.60;99.90;;;;;;5034834;28;20022;-73
2022/08/24 03:26:00;;;;;;;2.63;0.95;;;19.60;99.90;;;;;;5053351;28;20025;-74
2022/08/24 03:28:26;;;;;;;2.38;1.35;;;19.70;99.90;;;;;;5053355;28;20056;-75
2022/08/24 03:30:55;;;;;;;1.95;1.08;;;19.60;99.90;;;;;;5052743;28;20018;-74
2022/08/24 03:33:21;;;;;;;7.75;1.23;;;19.60;99.90;;;;;;5052132;28;20067;-74
2022/08/24 03:35:47;;;;;;;1.77;0.93;;;19.50;99.90;;;;;;5034894;28;20021;-73
2022/08/24 03:38:12;;;;;;;2.70;1.55;;;19.60;99.90;;;;;;5053390;28;20055;-76
2022/08/24 03:40:39;;;;;;;4.25;1.30;;;19.60;99.90;;;;;;5052477;28;20029;-75
2022/08/24 03:43:05;;;;;;;1.25;0.88;;;19.50;99.90;;;;;;5034961;28;20029;-76
2022/08/24 03:45:31;;;;;;;2.40;1.55;;;19.50;99.90;;;;;;5035103;28;20021;-73
2022/08/24 03:47:57;;;;;;;3.38;1.33;;;19.30;99.90;;;;;;5051794;28;20053;-74
2022/08/24 03:50:24;;;;;;;2.83;1.30;;;19.50;99.90;;;;;;5052356;28;20111;-74
2022/08/24 03:52:50;;;;;;;2.35;1.42;;;19.40;99.90;;;;;;5034946;28;20097;-73
2022/08/24 03:55:17;;;;;;;2.35;1.52;;;19.30;99.90;;;;;;5052150;28;20045;-74
2022/08/24 03:57:45;;;;;;;2.10;1.10;;;19.30;99.90;;;;;;5052507;28;20029;-74
2022/08/24 04:00:12;;;;;;;1.60;1.00;;;19.30;99.90;;;;;;5034316;28;20111;-73
2022/08/24 04:02:38;;;;;;;1.27;1.00;;;19.30;99.90;;;;;;5051528;28;20021;-73
2022/08/24 04:05:06;;;;;;;2.75;1.30;;;19.30;99.90;;;;;;5034588;28;20021;-74
2022/08/24 04:07:31;;;;;;;3.72;2.03;;;19.20;99.90;;;;;;5052089;28;20060;-73
2022/08/24 04:09:57;;;;;;;1.27;1.02;;;19.30;99.90;;;;;;5034177;28;20025;-73
2022/08/24 04:12:23;;;;;;;1.85;1.25;;;19.20;99.90;;;;;;5050621;28;20111;-75
2022/08/24 04:14:52;;;;;;;1.73;1.20;;;19.20;99.90;;;;;;5052483;28;20120;-75
2022/08/24 04:17:18;;;;;;;13.48;1.90;;;19.20;99.90;;;;;;5051652;28;20028;-73
2022/08/24 04:19:56;;;;;;;2.33;1.30;;;19.20;99.90;;;;;;5053296;28;20017;-74
2022/08/24 04:22:24;;;;;;;4.75;1.30;;;19.10;99.90;;;;;;5052156;28;20017;-72
2022/08/24 04:24:50;;;;;;;1.88;1.05;;;19.10;99.90;;;;;;5033816;28;20116;-73
2022/08/24 04:27:16;;;;;;;4.85;1.48;;;19.10;99.90;;;;;;5051990;28;20041;-72
2022/08/24 04:29:42;;;;;;;4.18;1.80;;;19.00;99.90;;;;;;5050680;28;20029;-75
2022/08/24 04:32:14;;;;;;;1.75;0.95;;;19.10;99.90;;;;;;5051865;28;20076;-76
2022/08/24 04:34:39;;;;;;;2.50;1.40;;;19.00;99.90;;;;;;5052408;28;20021;-76
2022/08/24 04:37:05;;;;;;;1.52;0.90;;;19.00;99.90;;;;;;5033611;28;20036;-76
2022/08/24 04:39:32;;;;;;;3.53;1.38;;;19.00;99.90;;;;;;5050360;28;20449;-75
2022/08/24 04:41:58;;;;;;;1.50;1.00;;;19.00;99.90;;;;;;5034207;28;20021;-76
2022/08/24 04:44:24;;;;;;;2.25;1.20;;;19.00;99.90;;;;;;5049686;28;20028;-76
2022/08/24 04:46:50;;;;;;;1.77;1.00;;;18.90;99.90;;;;;;5034172;28;20053;-77
2022/08/24 04:49:15;;;;;;;4.43;1.58;;;18.80;99.90;;;;;;5050619;28;20061;-75
2022/08/24 04:51:41;;;;;;;2.85;1.20;;;18.90;99.90;;;;;;5051372;28;20033;-74
2022/08/24 04:54:07;;;;;;;3.35;1.98;;;18.90;99.90;;;;;;5034026;28;20095;-75
2022/08/24 04:56:34;;;;;;;3.40;1.08;;;18.90;99.90;;;;;;5033104;28;20032;-75
2022/08/24 04:59:00;;;;;;;3.53;1.23;;;18.90;99.90;;;;;;5051284;28;20021;-74
2022/08/24 05:01:27;;;;;;;5.30;1.63;;;18.90;99.90;;;;;;5049721;28;20096;-74
2022/08/24 05:03:54;;;;;;;1.95;1.15;;;18.90;99.90;;;;;;5050337;28;20037;-76
2022/08/24 05:06:25;;;;;;;1.52;1.15;;;19.00;99.90;;;;;;5050403;28;20044;-76
2022/08/24 05:08:51;;;;;;;2.08;1.13;;;18.90;99.90;;;;;;5033899;28;20049;-75
2022/08/24 05:11:19;;;;;;;2.97;1.40;;;19.10;99.90;;;;;;5050153;28;20037;-75
2022/08/24 05:13:45;;;;;;;2.45;1.73;;;19.00;99.90;;;;;;5032007;28;20051;-74
2022/08/24 05:16:15;;;;;;;2.83;1.50;;;19.00;99.90;;;;;;5050622;28;20035;-75
2022/08/24 05:18:41;;;;;;;2.50;1.63;;;19.00;99.90;;;;;;5032178;28;20045;-75
2022/08/24 05:21:09;;;;;;;3.38;1.77;;;19.00;99.90;;;;;;5031036;28;20034;-76
2022/08/24 05:23:37;;;;;;;2.95;1.17;;;19.00;99.90;;;;;;5049068;28;20040;-75
2022/08/24 05:26:06;;;;;;;2.03;1.55;;;19.20;99.90;;;;;;5033565;28;20424;-75
2022/08/24 05:28:34;;;;;;;4.18;1.63;;;19.10;99.90;;;;;;5049833;28;20052;-77
2022/08/24 05:31:17;;;;;;;2.53;1.45;;;19.10;99.90;;;;;;5050533;28;20136;-76
2022/08/24 05:33:43;;;;;;;12.10;1.60;;;19.20;99.90;;;;;;5050020;28;20044;-74
2022/08/24 05:36:40;;;;;;;2.78;1.50;;;19.10;99.90;;;;;;5050218;28;20030;-76
2022/08/24 05:39:09;;;;;;;2.95;1.73;;;19.30;99.90;;;;;;5048768;28;20052;-72
2022/08/24 05:41:35;;;;;;;1.98;1.15;;;19.20;99.90;;;;;;5050323;28;20235;-72
2022/08/24 05:44:02;;;;;;;3.90;1.42;;;19.30;99.90;;;;;;5050915;28;20013;-73
2022/08/24 05:46:32;;;;;;;4.00;1.38;;;19.40;99.90;;;;;;5049495;28;20057;-74
2022/08/24 05:48:58;;;;;;;5.07;1.83;;;19.50;99.90;;;;;;5051539;28;20090;-75
2022/08/24 05:51:24;;;;;;;5.03;1.60;;;19.50;99.90;;;;;;5050381;28;20018;-74
2022/08/24 05:53:50;;;;;;;4.32;1.50;;;19.60;99.90;;;;;;5050629;28;20028;-73
2022/08/24 05:56:18;;;;;;;5.25;1.42;;;19.70;99.90;;;;;;5033233;28;20029;-74
2022/08/24 05:58:45;;;;;;;4.35;1.70;;;19.70;99.90;;;;;;5046952;28;21017;-74
2022/08/24 06:01:14;;;;;;;2.55;1.15;;;19.80;99.90;;;;;;5048368;28;20089;-75
2022/08/24 06:03:40;;;;;;;18.52;1.17;;;19.80;99.90;;;;;;5048340;28;20030;-73
2022/08/24 06:06:08;;;;;;;2.78;1.33;;;19.90;99.90;;;;;;5050918;28;20415;-74
2022/08/24 06:08:39;;;;;;;2.45;1.55;;;19.90;99.90;;;;;;5049567;28;20036;-73
2022/08/24 06:11:04;;;;;;;1.85;1.27;;;19.90;99.90;;;;;;5050488;28;20037;-73
2022/08/24 06:13:31;;;;;;;2.72;1.30;;;19.90;99.90;;;;;;5052145;28;20025;-74
2022/08/24 06:16:03;;;;;;;4.22;1.90;;;19.80;99.90;;;;;;5053205;28;20037;-72
2022/08/24 06:18:32;;;;;;;1.92;1.27;;;19.80;99.90;;;;;;5054786;28;20033;-73
2022/08/24 06:21:02;;;;;;;6.28;1.60;;;19.80;99.90;;;;;;5053435;28;20075;-72
2022/08/24 06:23:27;;;;;;;2.05;1.30;;;19.90;99.90;;;;;;5054321;28;20052;-73
2022/08/24 06:28:37;;;;;;;4.13;1.52;;;19.80;99.90;;;;;;5054101;28;20125;-74
2022/08/24 06:31:07;;;;;;;6.00;1.83;;;19.80;99.90;;;;;;5053574;28;20041;-74
2022/08/24 06:33:33;;;;;;;2.05;1.30;;;19.90;99.90;;;;;;5035886;28;20064;-73
2022/08/24 06:35:59;;;;;;;3.63;1.58;;;19.90;99.90;;;;;;5054332;28;20033;-73
2022/08/24 06:38:24;;;;;;;2.90;1.60;;;19.90;99.90;;;;;;5053379;28;20039;-72
2022/08/24 06:40:50;;;;;;;1.85;1.17;;;20.00;99.90;;;;;;5054389;28;20033;-72
2022/08/24 06:43:15;;;;;;;3.60;1.63;;;20.00;99.90;;;;;;5052435;28;20024;-73
2022/08/24 06:45:42;;;;;;;5.70;1.73;;;20.00;99.90;;;;;;5035432;28;20044;-73
2022/08/24 06:48:07;;;;;;;4.85;1.70;;;20.00;99.90;;;;;;5053216;28;20052;-75
2022/08/24 06:50:34;;;;;;;2.45;1.42;;;20.10;99.90;;;;;;5050916;28;20028;-73
2022/08/24 06:53:00;;;;;;;2.53;1.63;;;20.20;99.90;;;;;;5032711;28;20071;-74
2022/08/24 06:55:27;;;;;;;3.17;1.25;;;20.30;99.90;;;;;;5051383;28;20045;-73
2022/08/24 06:57:54;;;;;;;2.88;2.10;;;20.40;99.90;;;;;;5032256;28;20028;-74
2022/08/24 07:00:21;;;;;;;3.97;1.38;;;20.40;99.90;;;;;;5051021;28;20048;-74
2022/08/24 07:02:46;;;;;;;3.63;1.67;;;20.50;99.90;;;;;;5050769;28;20025;-73
2022/08/24 07:05:12;;;;;;;2.20;1.48;;;20.70;99.90;;;;;;5052140;28;20034;-74
2022/08/24 07:07:38;;;;;;;4.50;1.77;;;20.70;99.90;;;;;;5034309;28;20056;-74
2022/08/24 07:10:08;;;;;;;3.58;1.73;;;20.70;99.90;;;;;;5049832;28;20108;-74
2022/08/24 07:12:35;;;;;;;4.07;1.98;;;20.80;99.90;;;;;;5032223;28;20383;-76
2022/08/24 07:15:03;;;;;;;3.60;1.55;;;20.90;99.90;;;;;;5053020;28;20020;-75
2022/08/24 07:17:28;;;;;;;2.13;1.17;;;20.90;99.90;;;;;;5053147;28;20014;-73
2022/08/24 07:19:54;;;;;;;4.82;1.80;;;21.00;99.90;;;;;;5049537;28;20036;-75
2022/08/24 07:22:20;;;;;;;1.63;1.27;;;21.00;99.90;;;;;;5053995;28;20037;-75
2022/08/24 07:24:45;;;;;;;2.53;1.55;;;21.10;99.90;;;;;;5049956;28;20033;-77
2022/08/24 07:27:12;;;;;;;1.85;1.40;;;21.30;99.90;;;;;;5052517;28;20041;-75
2022/08/24 07:29:38;;;;;;;1.80;1.15;;;21.30;99.90;;;;;;5053212;28;20511;-73
2022/08/24 07:32:04;;;;;;;3.22;1.40;;;21.40;99.90;;;;;;5053332;28;20052;-76
2022/08/24 07:34:30;;;;;;;4.72;1.55;;;21.50;99.90;;;;;;5035464;28;20051;-76
2022/08/24 07:36:58;;;;;;;3.63;1.50;;;21.60;99.90;;;;;;5053529;28;20025;-74
2022/08/24 07:39:24;;;;;;;2.05;1.35;;;21.70;99.90;;;;;;5033445;28;20088;-73
2022/08/24 07:41:49;;;;;;;13.55;1.55;;;21.80;99.90;;;;;;5053063;28;20040;-76
2022/08/24 07:44:15;;;;;;;6.65;1.60;;;21.90;99.90;;;;;;5053199;28;20052;-79
2022/08/24 07:46:41;;;;;;;2.65;1.38;;;22.10;99.90;;;;;;5034197;28;20045;-75
2022/08/24 07:49:08;;;;;;;3.20;1.80;;;22.20;99.90;;;;;;5052717;28;20079;-76
2022/08/24 07:51:34;;;;;;;2.40;1.48;;;22.20;99.90;;;;;;5052651;28;20417;-77
2022/08/24 07:54:02;;;;;;;5.05;1.48;;;22.30;99.90;;;;;;5034399;28;20025;-78
2022/08/24 07:56:28;;;;;;;3.55;1.48;;;22.40;99.90;;;;;;5053474;28;20025;-72
2022/08/24 07:58:54;;;;;;;3.63;1.83;;;22.50;99.90;;;;;;5034313;28;20034;-75
2022/08/24 08:01:21;;;;;;;4.47;1.48;;;22.50;99.90;;;;;;5049894;28;20022;-74
2022/08/24 08:03:47;;;;;;;3.10;1.55;;;22.70;99.90;;;;;;5052719;28;20020;-74
2022/08/24 08:06:13;;;;;;;2.80;1.75;;;22.80;99.90;;;;;;5034189;28;20033;-78
2022/08/24 08:08:40;;;;;;;8.82;2.15;;;22.90;99.90;;;;;;5051899;28;20040;-77
2022/08/24 08:11:07;;;;;;;3.05;1.52;;;23.00;99.90;;;;;;5034638;28;20032;-75
2022/08/24 08:13:35;;;;;;;4.65;1.40;;;23.10;99.90;;;;;;5034001;28;20021;-76
2022/08/24 08:16:02;;;;;;;3.67;1.52;;;23.30;99.90;;;;;;5052220;28;20025;-72
2022/08/24 08:18:29;;;;;;;1.55;1.20;;;23.30;99.90;;;;;;5047146;28;20083;-79
2022/08/24 08:20:56;;;;;;;3.08;1.52;;;23.40;99.90;;;;;;5026948;28;20555;-77
2022/08/24 08:26:12;;;;;;;3.90;1.55;;;23.60;99.90;;;;;;5052480;28;20032;-79
2022/08/24 08:28:38;;;;;;;3.38;1.80;;;23.80;99.90;;;;;;5033684;28;20033;-76
2022/08/24 08:31:05;;;;;;;3.78;1.70;;;23.80;99.90;;;;;;5052059;28;20067;-79
2022/08/24 08:33:31;;;;;;;2.83;1.98;;;24.00;99.90;;;;;;5051063;28;20108;-78
2022/08/24 08:36:17;;;;;;;4.50;1.52;;;24.10;99.90;;;;;;5051678;28;20060;-74
2022/08/24 08:38:43;;;;;;;1.67;0.93;;;24.30;99.90;;;;;;5051108;28;20025;-74
2022/08/24 08:41:18;;;;;;;2.22;1.35;;;24.40;99.90;;;;;;5049921;28;20028;-75
2022/08/24 08:43:59;;;;;;;2.05;1.42;;;24.60;99.90;;;;;;5032869;28;20025;-82
2022/08/24 08:46:53;;;;;;;2.08;1.38;;;24.80;99.90;;;;;;5051385;28;20729;-75
2022/08/24 08:49:38;;;;;;;2.00;1.40;;;24.80;99.90;;;;;;5049468;28;20037;-75
2022/08/24 08:52:09;;;;;;;1.50;1.20;;;25.00;99.90;;;;;;5051700;28;20048;-78
2022/08/24 08:54:46;;;;;;;4.35;1.52;;;25.00;99.90;;;;;;5034186;28;20092;-76
2022/08/24 08:57:15;;;;;;;11.70;1.48;;;25.10;99.90;;;;;;5033655;28;20044;-78
2022/08/24 09:00:16;;;;;;;2.17;1.48;;;25.20;99.90;;;;;;5033265;28;20035;-77
2022/08/24 09:03:01;;;;;;;7.65;1.60;;;25.20;99.90;;;;;;5033476;28;20025;-77
2022/08/24 09:05:39;;;;;;;3.47;1.30;;;25.40;99.90;;;;;;5050688;28;20037;-75
2022/08/24 09:08:44;;;;;;;3.00;1.10;;;25.40;99.90;;;;;;5033244;28;20100;-77
2022/08/24 09:11:31;;;;;;;2.45;1.23;;;25.50;99.90;;;;;;5030517;28;20045;-76
2022/08/24 09:14:05;;;;;;;1.27;0.80;;;25.60;99.90;;;;;;5049362;28;20060;-78
2022/08/24 09:16:46;;;;;;;2.97;1.23;;;25.80;99.90;;;;;;5051207;28;20029;-75
2022/08/24 09:19:29;;;;;;;4.35;1.52;;;25.80;99.90;;;;;;5027768;28;20041;-80
2022/08/24 09:22:15;;;;;;;5.95;1.52;;;25.90;99.90;;;;;;5051493;28;20560;-71
2022/08/24 09:24:53;;;;;;;1.55;1.25;;;26.00;99.90;;;;;;5032425;28;20048;-77
2022/08/24 09:27:47;;;;;;;5.47;1.67;;;26.10;99.90;;;;;;5033560;28;20037;-81
2022/08/24 09:30:17;;;;;;;;;;;26.10;99.90;;;;;;5051483;28;20025;-74
2022/08/24 09:32:58;;;;;;;2.40;1.30;;;26.20;99.90;;;;;;5050180;28;19955;-80
2022/08/24 09:35:53;;;;;;;2.33;1.27;;;26.30;99.90;;;;;;5051229;28;20025;-78
2022/08/24 09:38:49;;;;;;;3.92;1.35;;;26.40;99.90;;;;;;5006630;28;20037;-74
2022/08/24 09:41:40;;;;;;;1.08;0.98;;;26.50;99.90;;;;;;5033347;28;20028;-81
2022/08/24 09:44:20;;;;;;;1.77;1.35;;;26.60;99.90;;;;;;5032301;28;20033;-76
2022/08/24 09:47:17;;;;;;;0.80;0.60;;;26.60;99.90;;;;;;5050993;28;20052;-76
2022/08/24 09:49:45;;;;;;;2.85;1.40;;;26.70;99.90;;;;;;5053941;28;20033;-77
2022/08/24 09:52:33;;;;;;;4.72;1.30;;;26.80;99.90;;;;;;5055024;28;20037;-78
2022/08/24 09:55:30;;;;;;;1.20;0.90;;;26.90;99.90;;;;;;5036924;28;20033;-78
2022/08/24 09:58:33;;;;;;;2.70;1.42;;;27.00;99.90;;;;;;5053908;28;20037;-74
2022/08/24 10:01:38;;;;;;;4.00;1.35;;;27.10;99.90;;;;;;5037058;28;20025;-77
2022/08/24 10:04:43;;;;;;;1.30;0.90;;;27.30;99.90;;;;;;5036601;28;20093;-77
2022/08/24 10:07:49;;;;;;;1.90;1.08;;;27.40;99.90;;;;;;5053828;28;20045;-77
2022/08/24 10:10:42;;;;;;;1.90;1.05;;;27.40;99.90;;;;;;5054673;28;20037;-73
2022/08/24 10:13:10;;;;;;;10.27;1.50;;;27.50;99.90;;;;;;5054623;28;20060;-76
2022/08/24 10:15:59;;;;;;;1.42;1.05;;;27.60;99.90;;;;;;5053251;28;20742;-76
2022/08/24 10:18:54;;;;;;;3.08;1.35;;;27.60;99.90;;;;;;5054591;28;20017;-74
2022/08/24 10:21:57;;;;;;;1.73;0.98;;;27.70;99.90;;;;;;5035811;28;20049;-73
2022/08/24 10:24:44;;;;;;;1.60;1.15;;;27.90;99.90;;;;;;5053124;28;20472;-73
2022/08/24 10:27:35;;;;;;;1.13;0.88;;;28.00;99.90;;;;;;5054660;28;20081;-76
2022/08/24 10:30:39;;;;;;;1.30;0.73;;;28.10;99.90;;;;;;5031660;28;20080;-79
2022/08/24 10:33:35;;;;;;;1.67;1.00;;;28.20;99.90;;;;;;5050286;28;20074;-78
2022/08/24 10:36:40;;;;;;;5.28;1.00;;;28.20;99.90;;;;;;5053133;28;20026;-76
2022/08/24 10:39:39;;;;;;;2.03;1.17;;;28.30;99.90;;;;;;5052570;28;20063;-77
2022/08/24 10:45:37;;;;;;;3.03;1.40;;;28.50;99.90;;;;;;5054662;28;20051;-74
2022/08/24 10:48:24;;;;;;;1.13;0.80;;;28.60;99.90;;;;;;5050132;28;20061;-74
2022/08/24 10:51:07;;;;;;;2.08;1.10;;;28.60;99.90;;;;;;5052174;28;20112;-76
2022/08/24 10:53:33;;;;;;;1.20;0.85;;;28.70;99.90;;;;;;5054065;28;20039;-73
2022/08/24 10:56:07;;;;;;;2.63;1.10;;;28.80;99.90;;;;;;5053875;28;20064;-76
2022/08/24 10:59:02;;;;;;;1.58;1.00;;;28.80;99.90;;;;;;5054569;28;20029;-73
2022/08/24 11:01:30;;;;;;;1.65;0.80;;;28.90;99.90;;;;;;5053360;28;20079;-74
2022/08/24 11:04:03;;;;;;;1.02;0.73;;;29.00;99.90;;;;;;5052319;28;20022;-76
2022/08/24 11:06:41;;;;;;;2.28;1.10;;;29.00;99.90;;;;;;5051202;28;20033;-75
2022/08/24 11:09:15;;;;;;;1.75;0.95;;;29.20;99.90;;;;;;5053964;28;20017;-80
2022/08/24 11:11:47;;;;;;;3.95;1.05;;;29.30;99.90;;;;;;5053585;28;20029;-78
2022/08/24 11:14:29;;;;;;;2.30;1.17;;;29.40;99.90;;;;;;5051499;28;20029;-73
2022/08/24 11:17:19;;;;;;;2.28;1.02;;;29.50;99.90;;;;;;5051696;28;20025;-75
2022/08/24 11:19:51;;;;;;;1.83;1.35;;;29.40;99.90;;;;;;5053781;28;20064;-77
2022/08/24 11:22:42;;;;;;;2.95;1.10;;;29.40;99.90;;;;;;5052441;28;20045;-74
2022/08/24 11:25:15;;;;;;;2.78;1.05;;;29.50;99.90;;;;;;5050807;28;20028;-76
2022/08/24 11:27:44;;;;;;;1.38;0.88;;;29.60;99.90;;;;;;5052645;28;20033;-76
2022/08/24 11:30:16;;;;;;;1.67;1.02;;;29.80;99.90;;;;;;5053395;28;20036;-73
2022/08/24 11:32:55;;;;;;;2.75;0.75;;;29.90;99.90;;;;;;5052929;28;20029;-73
2022/08/24 11:35:36;;;;;;;2.72;1.42;;;30.10;99.90;;;;;;5053227;28;20116;-74
2022/08/24 11:38:04;;;;;;;4.70;1.10;;;30.20;99.50;;;;;;5051482;28;20044;-72
2022/08/24 11:40:36;;;;;;;2.83;1.38;;;30.30;99.90;;;;;;5052887;28;20366;-80
2022/08/24 11:43:25;;;;;;;3.28;1.20;;;30.50;99.90;;;;;;5052776;28;20029;-75
2022/08/24 11:46:03;;;;;;;1.15;0.85;;;30.60;99.90;;;;;;5053396;28;20040;-73
2022/08/24 11:48:40;;;;;;;0.90;0.70;;;30.60;99.80;;;;;;5033015;28;20046;-73
2022/08/24 11:51:26;;;;;;;0.85;0.60;;;30.70;99.30;;;;;;5032901;28;20078;-72
2022/08/24 11:54:12;;;;;;;1.23;0.80;;;30.80;99.70;;;;;;5031062;28;20030;-76
2022/08/24 11:56:58;;;;;;;1.95;1.10;;;31.00;98.80;;;;;;5015441;28;20037;-77
2022/08/24 11:59:53;;;;;;;4.63;1.00;;;31.20;98.00;;;;;;5006739;28;20042;-75
2022/08/24 12:02:37;;;;;;;3.00;1.10;;;31.30;98.50;;;;;;5032574;28;20029;-75
2022/08/24 12:05:15;;;;;;;0.70;0.40;;;31.40;97.80;;;;;;5032969;28;20497;-76
2022/08/24 12:08:08;;;;;;;1.02;0.63;;;31.20;97.30;;;;;;5032723;28;20037;-72
2022/08/24 12:10:43;;;;;;;1.95;1.00;;;31.20;97.80;;;;;;5032212;28;20398;-73
2022/08/24 12:13:37;;;;;;;2.47;1.00;;;31.30;97.90;;;;;;5014665;28;20022;-72
2022/08/24 12:16:27;;;;;;;0.97;0.73;;;31.50;97.80;;;;;;5031943;28;20026;-72
2022/08/24 12:19:00;;;;;;;1.73;1.13;;;31.80;97.30;;;;;;5031467;28;20339;-74
2022/08/24 12:21:31;;;;;;;1.40;1.00;;;31.90;97.90;;;;;;5032575;28;20029;-77
2022/08/24 12:24:12;;;;;;;1.83;0.68;;;32.00;97.60;;;;;;5032267;28;20049;-74
2022/08/24 12:26:44;;;;;;;5.03;1.45;;;32.10;97.60;;;;;;5032242;28;20057;-75
2022/08/24 12:29:35;;;;;;;0.98;0.88;;;32.30;97.90;;;;;;5031059;28;20524;-80
2022/08/24 12:32:10;;;;;;;6.15;0.98;;;32.50;96.00;;;;;;5030729;28;20017;-74
2022/08/24 12:34:56;;;;;;;4.60;0.90;;;32.60;96.40;;;;;;5032492;28;20021;-73
2022/08/24 12:37:34;;;;;;;1.63;0.98;;;32.70;96.20;;;;;;5032062;28;20030;-71
2022/08/24 12:40:25;;;;;;;1.77;1.10;;;32.80;95.70;;;;;;5032783;28;20355;-78
2022/08/24 12:42:54;;;;;;;0.63;0.52;;;33.00;95.00;;;;;;5014534;28;20054;-73
2022/08/24 12:45:22;;;;;;;2.05;0.82;;;33.10;97.30;;;;;;5031203;28;20033;-74
2022/08/24 12:47:59;;;;;;;2.25;1.05;;;33.30;97.20;;;;;;5046884;28;20057;-71
2022/08/24 12:50:37;;;;;;;4.65;1.30;;;33.40;96.50;;;;;;5052215;28;20048;-75
2022/08/24 12:53:17;;;;;;;2.80;0.75;;;33.50;96.90;;;;;;5051389;28;20021;-75
2022/08/24 12:55:54;;;;;;;1.70;1.02;;;33.60;96.10;;;;;;5051190;28;20031;-73
2022/08/24 12:58:29;;;;;;;1.02;0.70;;;33.50;95.80;;;;;;5051654;28;20032;-77
2022/08/24 13:00:56;;;;;;;1.00;0.63;;;33.40;95.40;;;;;;5051675;28;20028;-73
2022/08/24 13:03:35;;;;;;;2.10;1.20;;;33.50;95.40;;;;;;5051172;28;20056;-71
2022/08/24 13:06:18;;;;;;;1.45;0.80;;;33.50;94.80;;;;;;5050915;28;20028;-75
2022/08/24 13:08:49;;;;;;;0.45;0.45;;;33.60;94.70;;;;;;5051257;28;20037;-73
2022/08/24 13:11:32;;;;;;;6.72;0.93;;;33.70;94.40;;;;;;5032743;28;20033;-74
2022/08/24 13:14:19;;;;;;;1.25;0.60;;;33.80;93.80;;;;;;5051179;28;20572;-72
2022/08/24 13:16:55;;;;;;;1.58;0.88;;;34.00;94.20;;;;;;5051547;28;20085;-74
2022/08/24 13:19:32;;;;;;;11.60;0.75;;;34.20;94.50;;;;;;5051255;28;20480;-78
2022/08/24 13:22:08;;;;;;;1.60;0.80;;;34.30;94.50;;;;;;5049743;28;20036;-75
2022/08/24 13:24:34;;;;;;;2.03;0.88;;;34.40;94.10;;;;;;5031958;28;20022;-73
2022/08/24 13:27:12;;;;;;;1.67;1.02;;;34.40;94.40;;;;;;5050466;28;20036;-72